Ernest Campbell — WDB3005 — position and weather

sailwx.info

Track history (hours):
 
Tides and Currents Weather Stations Pressure Air Temp Water Temp Dewpoint Dewpoint Depression Visibility Wind Speed Wind Dir Waves Ship Positions

Ernest Campbell

Owner: Campbell Leasing Company LLC, Wrangell, AK. More information available from US FCC via Universal Licensing System and Coast Guard Vessel Documentation Center.

Last reported at 2015-Jan-26 13:31 UTC. Time now 2015-Jan-26 14:29 UTC.
Position N 48°26' W 122°44'.

Length 33 m; draft 4.6 m.

Type: Tow > 200 m length. MMSI: 366882320.

Date/timePositionNaut miles runAvg speedWind from/ knotsBaromVisibWave heightAir tempDewpointWater temp
2015-Jan-26 13:31N 48°26' W 122°44'4 4.1
2015-Jan-26 12:33N 48°22' W 122°44'2 3.9
2015-Jan-26 12:03N 48°21' W 122°45'2 3.8
2015-Jan-26 11:33N 48°19' W 122°46'2 3.7
2015-Jan-26 11:08N 48°17' W 122°47'2 3.8
2015-Jan-26 10:31N 48°15' W 122°47'1 4.0
2015-Jan-26 10:18N 48°14' W 122°48'6 6.9
2015-Jan-26 09:23N 48°09' W 122°42'7 8.5
2015-Jan-26 08:33N 48°03' W 122°38'4 9.0
2015-Jan-26 08:07N 47°59' W 122°35'5 8.3
2015-Jan-26 07:33N 47°56' W 122°30'0 3.3
2015-Jan-26 07:33N 47°56' W 122°30'4 7.6
2015-Jan-26 07:03N 47°53' W 122°28'3 7.1
2015-Jan-26 06:33N 47°49' W 122°27'7 7.0
2015-Jan-26 05:33N 47°42' W 122°26'0 5.8
2015-Jan-26 05:33N 47°42' W 122°26'6 6.0
2015-Jan-26 04:33N 47°37' W 122°23'0 0.0
2015-Jan-26 04:33N 47°37' W 122°23'2 1.9
2015-Jan-26 03:33N 47°35' W 122°21'0 0.0
2015-Jan-26 03:33N 47°35' W 122°21'0 0.0
2015-Jan-26 02:33N 47°35' W 122°21'0 0.0
2015-Jan-26 02:33N 47°35' W 122°21'0 0.0
2015-Jan-26 01:33N 47°35' W 122°21'0 0.0
2015-Jan-26 01:01N 47°35' W 122°21'0 0.0
2015-Jan-26 00:33N 47°35' W 122°21'0 0.0
2015-Jan-26 00:31N 47°35' W 122°21'0 0.0
2015-Jan-25 23:33N 47°35' W 122°21'0 0.0
2015-Jan-25 23:31N 47°35' W 122°21'0 0.0
2015-Jan-25 22:33N 47°35' W 122°21'0 0.2
2015-Jan-25 22:31N 47°35' W 122°21'0 0.0
2015-Jan-25 21:33N 47°35' W 122°21'0 0.1
2015-Jan-25 21:31N 47°35' W 122°21'0 0.0
2015-Jan-25 20:33N 47°35' W 122°21'0 0.0
2015-Jan-25 20:30N 47°35' W 122°21'0 0.0
2015-Jan-25 19:33N 47°35' W 122°21'0 0.1
2015-Jan-25 19:30N 47°35' W 122°21'0 0.0
2015-Jan-25 18:33N 47°35' W 122°21'0 0.0
2015-Jan-25 18:30N 47°35' W 122°21'0 0.0
2015-Jan-25 17:33N 47°35' W 122°21'0 0.0
2015-Jan-25 17:30N 47°35' W 122°21'0 0.0
2015-Jan-25 16:33N 47°35' W 122°21'0 0.0
2015-Jan-25 16:29N 47°35' W 122°21'0 0.0
2015-Jan-25 15:31N 47°35' W 122°21'0 0.0
2015-Jan-25 14:58N 47°35' W 122°21'0 0.0
2015-Jan-25 14:33N 47°35' W 122°21'0 0.0
2015-Jan-25 14:33N 47°35' W 122°21'0 0.0
2015-Jan-25 13:33N 47°35' W 122°21'0 0.0
2015-Jan-25 13:33N 47°35' W 122°21'0 0.0
2015-Jan-25 12:31N 47°35' W 122°21'0 0.2
2015-Jan-25 12:28N 47°35' W 122°21'0 0.0
2015-Jan-25 11:33N 47°35' W 122°21'0 0.2
2015-Jan-25 11:31N 47°35' W 122°21'0 0.0
2015-Jan-25 10:33N 47°35' W 122°21'0 0.0
2015-Jan-25 10:31N 47°35' W 122°21'0 0.0
2015-Jan-25 09:33N 47°35' W 122°21'0 0.0
2015-Jan-25 09:31N 47°35' W 122°21'0 0.0
2015-Jan-25 08:33N 47°35' W 122°21'0 1.0
2015-Jan-25 08:31N 47°35' W 122°21'0 0.0
2015-Jan-25 07:33N 47°35' W 122°21'0 0.1
2015-Jan-25 07:30N 47°35' W 122°21'0 0.0
2015-Jan-25 07:05N 47°35' W 122°21'0 0.0
2015-Jan-25 06:33N 47°35' W 122°21'0 0.0
2015-Jan-25 05:34N 47°35' W 122°21'0 0.1
2015-Jan-25 05:30N 47°35' W 122°21'0 0.0
2015-Jan-25 04:33N 47°35' W 122°21'0 0.1
2015-Jan-25 04:30N 47°35' W 122°21'0 0.0
2015-Jan-25 03:33N 47°35' W 122°21'0 0.0
2015-Jan-25 03:30N 47°35' W 122°21'0 0.0
2015-Jan-25 02:33N 47°35' W 122°21'0 0.0
2015-Jan-25 01:33N 47°35' W 122°21'0 0.0
2015-Jan-25 01:26N 47°35' W 122°21'0 0.0
2015-Jan-25 00:33N 47°35' W 122°21'0 0.0
2015-Jan-25 00:31N 47°35' W 122°21'0 0.0
2015-Jan-24 23:33N 47°35' W 122°21'0 0.1
2015-Jan-24 23:31N 47°35' W 122°21'0 0.0
2015-Jan-24 22:33N 47°35' W 122°21'0 0.9
2015-Jan-24 22:31N 47°35' W 122°21'5 5.5
2015-Jan-24 21:33N 47°34' W 122°28'3 2.7
2015-Jan-24 20:33N 47°32' W 122°31'0 0.0
2015-Jan-24 19:33N 47°32' W 122°31'0 0.0
2015-Jan-24 18:33N 47°32' W 122°31'0 0.1
2015-Jan-24 17:33N 47°32' W 122°31'1 2.8
2015-Jan-24 17:06N 47°32' W 122°29'4 6.5
2015-Jan-24 16:33N 47°34' W 122°26'0 6.6
2015-Jan-24 16:31N 47°35' W 122°26'4 3.7
2015-Jan-24 15:34N 47°34' W 122°21'0 0.2
2015-Jan-24 15:32N 47°34' W 122°21'0 0.1
2015-Jan-24 14:33N 47°34' W 122°21'0 0.0
2015-Jan-24 14:31N 47°34' W 122°21'0 0.0
2015-Jan-24 13:33N 47°34' W 122°21'0 0.0
2015-Jan-24 13:31N 47°34' W 122°21'0 0.0
2015-Jan-24 12:33N 47°34' W 122°21'0 0.0
2015-Jan-24 12:31N 47°34' W 122°21'0 0.0
2015-Jan-24 11:33N 47°34' W 122°21'0 0.1
2015-Jan-24 11:30N 47°34' W 122°21'0 0.0
2015-Jan-24 10:33N 47°34' W 122°21'0 0.0
2015-Jan-24 10:31N 47°34' W 122°21'0 0.0
2015-Jan-24 09:33N 47°34' W 122°21'0 0.1
2015-Jan-24 09:31N 47°34' W 122°21'0 0.0
2015-Jan-24 08:33N 47°34' W 122°21'0 0.1
2015-Jan-24 08:30N 47°34' W 122°21'0 0.0
2015-Jan-24 07:33N 47°34' W 122°21'0 0.1
2015-Jan-24 07:30N 47°34' W 122°21'0 0.0
2015-Jan-24 07:00N 47°34' W 122°21'0 0.0
2015-Jan-24 06:33N 47°34' W 122°21'0 0.0
2015-Jan-24 05:33N 47°34' W 122°21'0 0.0
2015-Jan-24 05:30N 47°34' W 122°21'0 0.0
2015-Jan-24 04:33N 47°34' W 122°21'0 0.0
2015-Jan-24 04:30N 47°34' W 122°21'0 0.0
2015-Jan-24 03:33N 47°34' W 122°21'0 0.0
2015-Jan-24 03:29N 47°34' W 122°21'0 0.0
2015-Jan-24 02:33N 47°34' W 122°21'0 0.0
2015-Jan-24 02:29N 47°34' W 122°21'0 0.0
2015-Jan-24 01:33N 47°34' W 122°21'0 0.0
2015-Jan-24 01:29N 47°34' W 122°21'0 0.0
2015-Jan-24 00:33N 47°34' W 122°21'0 0.0
2015-Jan-24 00:33N 47°34' W 122°21'0 0.0
2015-Jan-23 23:33N 47°34' W 122°21'0 0.0
2015-Jan-23 23:33N 47°34' W 122°21'0 0.0
2015-Jan-23 22:33N 47°34' W 122°21'0 0.0
2015-Jan-23 22:33N 47°34' W 122°21'0 0.0
2015-Jan-23 21:33N 47°34' W 122°21'0 0.0
2015-Jan-23 21:32N 47°34' W 122°21'0 0.0
2015-Jan-23 20:33N 47°34' W 122°21'1 0.9
2015-Jan-23 19:32N 47°35' W 122°21'0 0.0
2015-Jan-23 18:33N 47°35' W 122°21'1 0.9
2015-Jan-23 17:31N 47°34' W 122°21'0 0.0
2015-Jan-23 16:33N 47°34' W 122°21'0 0.0
2015-Jan-23 15:33N 47°34' W 122°21'0 0.0
2015-Jan-23 14:33N 47°34' W 122°21'0 0.0
2015-Jan-23 13:33N 47°34' W 122°21'0 0.0
2015-Jan-23 12:31N 47°34' W 122°21'0 0.0
2015-Jan-23 11:30N 47°34' W 122°21'0 0.0
2015-Jan-23 10:29N 47°34' W 122°21'0 0.0
2015-Jan-23 09:33N 47°34' W 122°21'0 0.0
2015-Jan-23 08:33N 47°34' W 122°21'0 0.0
2015-Jan-23 07:33N 47°34' W 122°21'0 0.0
2015-Jan-23 06:32N 47°34' W 122°21'0 0.0
2015-Jan-23 05:33N 47°34' W 122°21'0 0.0
2015-Jan-23 05:31N 47°34' W 122°21'0 0.0
2015-Jan-23 04:33N 47°34' W 122°21'0 0.0
2015-Jan-23 04:31N 47°34' W 122°21'0 0.0
2015-Jan-23 03:33N 47°34' W 122°21'0 0.0
2015-Jan-23 03:31N 47°34' W 122°21'0 0.0
2015-Jan-23 02:32N 47°34' W 122°21'0 0.0
2015-Jan-23 02:29N 47°34' W 122°21'0 0.0
2015-Jan-23 01:34N 47°34' W 122°21'0 0.0
2015-Jan-23 01:33N 47°34' W 122°21'0 0.0
2015-Jan-23 00:34N 47°34' W 122°21'0 0.0
2015-Jan-23 00:33N 47°34' W 122°21'0 0.0
2015-Jan-22 23:34N 47°34' W 122°21'0 0.0
2015-Jan-22 23:33N 47°34' W 122°21'0 0.0
2015-Jan-22 22:33N 47°34' W 122°21'0 0.0
2015-Jan-22 22:33N 47°34' W 122°21'0 0.0
2015-Jan-22 21:33N 47°34' W 122°21'0 0.0
2015-Jan-22 21:13N 47°34' W 122°21'0 0.0
2015-Jan-22 20:33N 47°34' W 122°21'0 0.0
2015-Jan-22 20:32N 47°34' W 122°21'0 0.0
2015-Jan-22 19:29N 47°34' W 122°21'0 0.0
2015-Jan-22 19:16N 47°34' W 122°21'0 0.0
2015-Jan-22 18:33N 47°34' W 122°21'0 0.0
2015-Jan-22 18:31N 47°34' W 122°21'0 0.0
2015-Jan-22 17:33N 47°34' W 122°21'0 0.0
2015-Jan-22 17:31N 47°34' W 122°21'0 0.0
2015-Jan-22 16:33N 47°34' W 122°21'0 0.1
2015-Jan-22 16:31N 47°34' W 122°21'0 0.0
2015-Jan-22 15:33N 47°34' W 122°21'0 0.0
2015-Jan-22 15:31N 47°34' W 122°21'0 0.0
2015-Jan-22 14:33N 47°34' W 122°21'0 0.0
2015-Jan-22 14:31N 47°34' W 122°21'0 0.0
2015-Jan-22 13:33N 47°34' W 122°21'0 0.0
2015-Jan-22 13:31N 47°34' W 122°21'0 0.0
2015-Jan-22 12:33N 47°34' W 122°21'0 0.0
2015-Jan-22 12:30N 47°34' W 122°21'0 0.0
2015-Jan-22 11:33N 47°34' W 122°21'0 0.0
2015-Jan-22 11:30N 47°34' W 122°21'0 0.0
2015-Jan-22 10:33N 47°34' W 122°21'0 0.1
2015-Jan-22 10:30N 47°34' W 122°21'0 0.0
2015-Jan-22 09:33N 47°34' W 122°21'0 0.0
2015-Jan-22 09:30N 47°34' W 122°21'0 0.0
2015-Jan-22 08:33N 47°34' W 122°21'0 0.1
2015-Jan-22 08:30N 47°34' W 122°21'0 0.0
2015-Jan-22 07:33N 47°34' W 122°21'0 0.1
2015-Jan-22 07:30N 47°34' W 122°21'0 0.0
2015-Jan-22 07:10N 47°34' W 122°21'0 0.0
2015-Jan-22 06:29N 47°34' W 122°21'0 0.0
2015-Jan-22 05:33N 47°34' W 122°21'0 0.0
2015-Jan-22 05:29N 47°34' W 122°21'0 0.0
2015-Jan-22 04:33N 47°34' W 122°21'0 0.0
2015-Jan-22 04:29N 47°34' W 122°21'0 0.0
2015-Jan-22 03:34N 47°34' W 122°21'0 0.0
2015-Jan-22 03:33N 47°34' W 122°21'0 0.0
2015-Jan-22 02:33N 47°34' W 122°21'0 0.0
2015-Jan-22 02:32N 47°34' W 122°21'0 0.0
2015-Jan-22 01:33N 47°34' W 122°21'0 0.0
2015-Jan-22 01:31N 47°34' W 122°21'0 0.0
2015-Jan-22 00:33N 47°34' W 122°21'0 0.0
2015-Jan-22 00:31N 47°34' W 122°21'0 0.0
2015-Jan-21 23:33N 47°34' W 122°21'0 0.0
2015-Jan-21 23:31N 47°34' W 122°21'0 0.1
2015-Jan-21 22:50N 47°34' W 122°21'0 0.5
2015-Jan-21 22:46N 47°35' W 122°21'0 1.3
2015-Jan-21 22:46N 47°35' W 122°21'1 2.6
2015-Jan-21 22:33N 47°35' W 122°21'1 2.4
2015-Jan-21 22:21N 47°36' W 122°21'1 1.5
2015-Jan-21 21:33N 47°34' W 122°21'0 3.4
2015-Jan-21 21:30N 47°35' W 122°21'1 0.9
2015-Jan-21 20:33N 47°35' W 122°21'0 0.0
2015-Jan-21 20:30N 47°35' W 122°21'0 0.0
2015-Jan-21 19:34N 47°35' W 122°21'0 0.0
2015-Jan-21 19:30N 47°35' W 122°21'1 1.1
2015-Jan-21 18:33N 47°34' W 122°21'0 0.0
2015-Jan-21 18:30N 47°34' W 122°21'1 1.1
2015-Jan-21 17:33N 47°35' W 122°21'0 0.0
2015-Jan-21 17:30N 47°35' W 122°21'0 0.0
2015-Jan-21 16:33N 47°35' W 122°21'0 0.0
2015-Jan-21 16:30N 47°35' W 122°21'0 0.0
2015-Jan-21 15:33N 47°35' W 122°21'0 0.0
2015-Jan-21 15:30N 47°35' W 122°21'0 0.0
2015-Jan-21 14:33N 47°35' W 122°21'0 0.0
2015-Jan-21 14:29N 47°35' W 122°21'0 0.0
2015-Jan-21 13:33N 47°35' W 122°21'0 0.0
2015-Jan-21 13:30N 47°35' W 122°21'0 0.0
2015-Jan-21 12:33N 47°35' W 122°21'0 0.0
2015-Jan-21 12:29N 47°35' W 122°21'0 0.0
2015-Jan-21 11:33N 47°35' W 122°21'0 0.0
2015-Jan-21 11:33N 47°35' W 122°21'0 0.0
2015-Jan-21 10:33N 47°35' W 122°21'0 0.0
2015-Jan-21 10:28N 47°35' W 122°21'0 0.0
2015-Jan-21 09:33N 47°35' W 122°21'0 0.0
2015-Jan-21 09:33N 47°35' W 122°21'0 0.0
2015-Jan-21 08:33N 47°35' W 122°21'0 0.0
2015-Jan-21 08:33N 47°35' W 122°21'0 0.0
2015-Jan-21 07:33N 47°35' W 122°21'0 0.0
2015-Jan-21 07:32N 47°35' W 122°21'0 0.0
2015-Jan-21 07:02N 47°35' W 122°21'0 0.0
2015-Jan-21 06:33N 47°35' W 122°21'0 0.0
2015-Jan-21 05:33N 47°35' W 122°21'0 0.0
2015-Jan-21 05:32N 47°35' W 122°21'0 0.0
2015-Jan-21 04:33N 47°35' W 122°21'0 0.1
2015-Jan-21 03:33N 47°35' W 122°21'0 0.5
2015-Jan-21 03:18N 47°35' W 122°21'0 0.0
2015-Jan-21 02:33N 47°35' W 122°21'0 0.0
2015-Jan-21 02:28N 47°35' W 122°21'0 0.0
2015-Jan-21 01:33N 47°35' W 122°21'0 0.0
2015-Jan-21 01:33N 47°35' W 122°21'0 0.0
2015-Jan-21 00:33N 47°35' W 122°21'0 0.0
2015-Jan-21 00:33N 47°35' W 122°21'2 1.9
2015-Jan-20 23:33N 47°37' W 122°23'0 0.5
2015-Jan-20 23:33N 47°37' W 122°23'5 5.1
2015-Jan-20 22:33N 47°40' W 122°28'0 4.4
2015-Jan-20 22:33N 47°40' W 122°28'7 7.2
2015-Jan-20 21:34N 47°47' W 122°27'1 7.3
2015-Jan-20 21:22N 47°49' W 122°28'5 6.8
2015-Jan-20 20:34N 47°54' W 122°30'0 6.2
2015-Jan-20 20:31N 47°54' W 122°30'6 6.6
2015-Jan-20 19:33N 47°59' W 122°36'6 5.5
2015-Jan-20 18:33N 48°04' W 122°40'3 5.3
2015-Jan-20 17:56N 48°07' W 122°41'2 4.8
2015-Jan-20 17:33N 48°08' W 122°43'4 4.6
2015-Jan-20 16:36N 48°11' W 122°48'0 5.2
2015-Jan-20 16:33N 48°12' W 122°48'8 6.5
2015-Jan-20 15:20N 48°19' W 122°47'6 7.1
2015-Jan-20 14:33N 48°25' W 122°45'6 5.9
2015-Jan-20 13:33N 48°31' W 122°45'4 4.4
2015-Jan-20 12:33N 48°35' W 122°46'1 2.4
2015-Jan-20 12:14N 48°36' W 122°46'1 2.1
2015-Jan-20 11:33N 48°37' W 122°45'3 2.5
2015-Jan-20 10:33N 48°40' W 122°43'3 3.8
2015-Jan-20 09:53N 48°42' W 122°45'1 4.3
2015-Jan-20 09:33N 48°43' W 122°45'5 5.2
2015-Jan-20 08:33N 48°49' W 122°46'1 6.2
2015-Jan-20 08:22N 48°50' W 122°46'2 2.3
2015-Jan-20 07:33N 48°52' W 122°45'0 0.2
2015-Jan-20 06:52N 48°52' W 122°45'0 0.0
2015-Jan-20 06:32N 48°52' W 122°45'0 0.0
2015-Jan-20 05:30N 48°52' W 122°45'0 0.0
2015-Jan-20 04:25N 48°52' W 122°45'0 0.0
2015-Jan-20 03:28N 48°52' W 122°45'0 0.0
2015-Jan-20 02:32N 48°52' W 122°45'0 0.0
2015-Jan-20 01:40N 48°52' W 122°45'0 0.0
2015-Jan-20 01:33N 48°52' W 122°45'0 0.0
2015-Jan-20 00:31N 48°52' W 122°45'0 0.0
2015-Jan-19 23:33N 48°52' W 122°45'0 0.0
2015-Jan-19 22:33N 48°52' W 122°45'0 0.0
2015-Jan-19 21:31N 48°52' W 122°45'0 0.0
2015-Jan-19 21:15N 48°52' W 122°45'0 0.0
2015-Jan-19 20:33N 48°52' W 122°45'0 0.0
2015-Jan-19 19:20N 48°52' W 122°45'0 0.0
2015-Jan-19 18:32N 48°52' W 122°45'0 0.0
2015-Jan-19 18:04N 48°52' W 122°45'0 0.3
2015-Jan-19 17:32N 48°52' W 122°45'1 0.8
2015-Jan-19 16:33N 48°52' W 122°47'0 0.5
2015-Jan-19 15:46N 48°51' W 122°47'0 1.1
2015-Jan-19 15:33N 48°51' W 122°46'6 6.5
2015-Jan-19 14:33N 48°45' W 122°45'7 6.9
2015-Jan-19 13:33N 48°38' W 122°44'9 8.5
2015-Jan-19 12:33N 48°29' W 122°44'11 8.5
2015-Jan-19 11:14N 48°21' W 122°55'2 9.5
2015-Jan-19 10:58N 48°19' W 122°58'3 8.1
2015-Jan-19 10:32N 48°18' W 123°03'6 8.1
2015-Jan-19 09:48N 48°14' W 123°10'2 7.9
2015-Jan-19 09:33N 48°13' W 123°13'8 7.8
2015-Jan-19 08:33N 48°09' W 123°22'3 3.1
2015-Jan-19 07:33N 48°08' W 123°27'0 0.0
2015-Jan-19 06:33N 48°08' W 123°27'0 0.0
2015-Jan-19 06:15N 48°08' W 123°27'0 0.0
2015-Jan-19 05:33N 48°08' W 123°27'0 0.0
2015-Jan-19 04:36N 48°08' W 123°27'0 0.0
2015-Jan-19 04:33N 48°08' W 123°27'0 0.0
2015-Jan-19 04:20N 48°08' W 123°27'0 0.0
2015-Jan-19 03:33N 48°08' W 123°27'0 0.0
2015-Jan-19 02:33N 48°08' W 123°27'0 0.0
2015-Jan-19 01:50N 48°08' W 123°27'0 0.0
2015-Jan-19 01:33N 48°08' W 123°27'0 0.0
2015-Jan-19 01:10N 48°08' W 123°27'0 0.0
2015-Jan-19 00:33N 48°08' W 123°27'0 0.0
2015-Jan-18 23:33N 48°08' W 123°27'0 0.0
2015-Jan-18 23:24N 48°08' W 123°27'0 0.0
2015-Jan-18 22:34N 48°08' W 123°27'0 0.0
2015-Jan-18 21:59N 48°08' W 123°27'0 0.0
2015-Jan-18 21:34N 48°08' W 123°27'0 0.0
2015-Jan-18 21:19N 48°08' W 123°27'0 0.0
2015-Jan-18 20:33N 48°08' W 123°27'0 0.0
2015-Jan-18 19:54N 48°08' W 123°27'0 0.0
2015-Jan-18 19:33N 48°08' W 123°27'0 0.0
2015-Jan-18 18:59N 48°08' W 123°27'0 0.0
2015-Jan-18 18:33N 48°08' W 123°27'0 0.0
2015-Jan-18 17:33N 48°08' W 123°27'0 0.0
2015-Jan-18 16:33N 48°08' W 123°27'0 0.0
2015-Jan-18 15:33N 48°08' W 123°27'0 0.0
2015-Jan-18 14:34N 48°08' W 123°27'0 0.3
2015-Jan-18 13:33N 48°08' W 123°26'1 0.9
2015-Jan-18 12:33N 48°08' W 123°25'0 0.1
2015-Jan-18 11:33N 48°08' W 123°25'0 0.0
2015-Jan-18 10:32N 48°08' W 123°25'0 0.0
2015-Jan-18 10:18N 48°08' W 123°25'0 0.1
2015-Jan-18 09:33N 48°08' W 123°25'1 1.2
2015-Jan-18 08:33N 48°08' W 123°27'0 0.0
2015-Jan-18 07:33N 48°08' W 123°27'0 0.0
2015-Jan-18 06:33N 48°08' W 123°27'0 0.0
2015-Jan-18 05:33N 48°08' W 123°27'0 0.0
2015-Jan-18 04:33N 48°08' W 123°27'0 0.0
2015-Jan-18 03:33N 48°08' W 123°27'0 0.0
2015-Jan-18 02:33N 48°08' W 123°27'0 0.0
2015-Jan-18 01:33N 48°08' W 123°27'0 0.0
2015-Jan-18 01:29N 48°08' W 123°27'0 0.0
2015-Jan-18 00:33N 48°08' W 123°27'0 0.0
2015-Jan-17 23:33N 48°08' W 123°27'0 0.0
2015-Jan-17 22:33N 48°08' W 123°27'0 0.0
2015-Jan-17 22:02N 48°08' W 123°27'0 0.0
2015-Jan-17 21:33N 48°08' W 123°27'0 0.0
2015-Jan-17 21:16N 48°08' W 123°27'0 0.0
2015-Jan-17 20:33N 48°08' W 123°27'0 0.1
2015-Jan-17 20:29N 48°08' W 123°27'0 0.0
2015-Jan-17 19:33N 48°08' W 123°27'0 0.0
2015-Jan-17 19:28N 48°08' W 123°27'0 0.0
2015-Jan-17 18:33N 48°08' W 123°27'0 0.0
2015-Jan-17 17:33N 48°08' W 123°27'0 0.0
2015-Jan-17 16:33N 48°08' W 123°27'0 0.0
2015-Jan-17 15:33N 48°08' W 123°27'0 0.0
2015-Jan-17 14:33N 48°08' W 123°27'0 0.0
2015-Jan-17 13:33N 48°08' W 123°27'0 0.0
2015-Jan-17 12:33N 48°08' W 123°27'0 0.0
2015-Jan-17 11:48N 48°08' W 123°27'0 0.0
2015-Jan-17 11:33N 48°08' W 123°27'0 0.0
2015-Jan-17 10:37N 48°08' W 123°27'0 0.0
2015-Jan-17 10:33N 48°08' W 123°27'0 0.0
2015-Jan-17 10:11N 48°08' W 123°27'0 0.0
2015-Jan-17 09:33N 48°08' W 123°27'0 0.0
2015-Jan-17 08:33N 48°08' W 123°27'0 0.0
2015-Jan-17 07:33N 48°08' W 123°27'0 0.0
2015-Jan-17 06:33N 48°08' W 123°27'0 0.0
2015-Jan-17 05:33N 48°08' W 123°27'0 0.0
2015-Jan-17 04:34N 48°08' W 123°27'0 0.0
2015-Jan-17 03:33N 48°08' W 123°27'1 0.6
2015-Jan-17 02:32N 48°08' W 123°27'0 0.0
2015-Jan-17 01:30N 48°08' W 123°27'0 0.1
2015-Jan-17 00:33N 48°08' W 123°27'0 0.2
2015-Jan-17 00:12N 48°08' W 123°27'0 0.3
2015-Jan-16 23:33N 48°08' W 123°27'0 0.2
2015-Jan-16 23:18N 48°08' W 123°27'0 0.6
2015-Jan-16 22:33N 48°08' W 123°27'0 0.1
2015-Jan-16 21:33N 48°08' W 123°27'0 0.0
2015-Jan-16 20:33N 48°08' W 123°27'0 0.0
2015-Jan-16 19:33N 48°08' W 123°27'0 0.0
2015-Jan-16 19:22N 48°08' W 123°27'0 0.1
2015-Jan-16 18:33N 48°08' W 123°27'0 0.0
2015-Jan-16 17:33N 48°08' W 123°27'0 0.0
2015-Jan-16 17:12N 48°08' W 123°27'0 0.0
2015-Jan-16 16:33N 48°08' W 123°27'0 0.0
2015-Jan-16 15:33N 48°08' W 123°27'0 0.0
2015-Jan-16 14:33N 48°08' W 123°27'0 0.0
2015-Jan-16 13:33N 48°08' W 123°27'  
Track history (hours):
 
Tides and Currents Weather Stations Pressure Air Temp Water Temp Dewpoint Dewpoint Depression Visibility Wind Speed Wind Dir Waves Ship Positions

Ernest Campbell

Owner: Campbell Leasing Company LLC, Wrangell, AK. More information available from US FCC via Universal Licensing System and Coast Guard Vessel Documentation Center.

Last reported at 2015-Jan-26 13:31 UTC. Time now 2015-Jan-26 14:29 UTC.
Position N 48°26' W 122°44'.

Length 33 m; draft 4.6 m.

Type: Tow > 200 m length. MMSI: 366882320.

Date/timePositionNaut miles runAvg speedWind from/ knotsBaromVisibWave heightAir tempDewpointWater temp
2015-Jan-26 13:31N 48°26' W 122°44'4 4.1
2015-Jan-26 12:33N 48°22' W 122°44'2 3.9
2015-Jan-26 12:03N 48°21' W 122°45'2 3.8
2015-Jan-26 11:33N 48°19' W 122°46'2 3.7
2015-Jan-26 11:08N 48°17' W 122°47'2 3.8
2015-Jan-26 10:31N 48°15' W 122°47'1 4.0
2015-Jan-26 10:18N 48°14' W 122°48'6 6.9
2015-Jan-26 09:23N 48°09' W 122°42'7 8.5
2015-Jan-26 08:33N 48°03' W 122°38'4 9.0
2015-Jan-26 08:07N 47°59' W 122°35'5 8.3
2015-Jan-26 07:33N 47°56' W 122°30'0 3.3
2015-Jan-26 07:33N 47°56' W 122°30'4 7.6
2015-Jan-26 07:03N 47°53' W 122°28'3 7.1
2015-Jan-26 06:33N 47°49' W 122°27'7 7.0
2015-Jan-26 05:33N 47°42' W 122°26'0 5.8
2015-Jan-26 05:33N 47°42' W 122°26'6 6.0
2015-Jan-26 04:33N 47°37' W 122°23'0 0.0
2015-Jan-26 04:33N 47°37' W 122°23'2 1.9
2015-Jan-26 03:33N 47°35' W 122°21'0 0.0
2015-Jan-26 03:33N 47°35' W 122°21'0 0.0
2015-Jan-26 02:33N 47°35' W 122°21'0 0.0
2015-Jan-26 02:33N 47°35' W 122°21'0 0.0
2015-Jan-26 01:33N 47°35' W 122°21'0 0.0
2015-Jan-26 01:01N 47°35' W 122°21'0 0.0
2015-Jan-26 00:33N 47°35' W 122°21'0 0.0
2015-Jan-26 00:31N 47°35' W 122°21'0 0.0
2015-Jan-25 23:33N 47°35' W 122°21'0 0.0
2015-Jan-25 23:31N 47°35' W 122°21'0 0.0
2015-Jan-25 22:33N 47°35' W 122°21'0 0.2
2015-Jan-25 22:31N 47°35' W 122°21'0 0.0
2015-Jan-25 21:33N 47°35' W 122°21'0 0.1
2015-Jan-25 21:31N 47°35' W 122°21'0 0.0
2015-Jan-25 20:33N 47°35' W 122°21'0 0.0
2015-Jan-25 20:30N 47°35' W 122°21'0 0.0
2015-Jan-25 19:33N 47°35' W 122°21'0 0.1
2015-Jan-25 19:30N 47°35' W 122°21'0 0.0
2015-Jan-25 18:33N 47°35' W 122°21'0 0.0
2015-Jan-25 18:30N 47°35' W 122°21'0 0.0
2015-Jan-25 17:33N 47°35' W 122°21'0 0.0
2015-Jan-25 17:30N 47°35' W 122°21'0 0.0
2015-Jan-25 16:33N 47°35' W 122°21'0 0.0
2015-Jan-25 16:29N 47°35' W 122°21'0 0.0
2015-Jan-25 15:31N 47°35' W 122°21'0 0.0
2015-Jan-25 14:58N 47°35' W 122°21'0 0.0
2015-Jan-25 14:33N 47°35' W 122°21'0 0.0
2015-Jan-25 14:33N 47°35' W 122°21'0 0.0
2015-Jan-25 13:33N 47°35' W 122°21'0 0.0
2015-Jan-25 13:33N 47°35' W 122°21'0 0.0
2015-Jan-25 12:31N 47°35' W 122°21'0 0.2
2015-Jan-25 12:28N 47°35' W 122°21'0 0.0
2015-Jan-25 11:33N 47°35' W 122°21'0 0.2
2015-Jan-25 11:31N 47°35' W 122°21'0 0.0
2015-Jan-25 10:33N 47°35' W 122°21'0 0.0
2015-Jan-25 10:31N 47°35' W 122°21'0 0.0
2015-Jan-25 09:33N 47°35' W 122°21'0 0.0
2015-Jan-25 09:31N 47°35' W 122°21'0 0.0
2015-Jan-25 08:33N 47°35' W 122°21'0 1.0
2015-Jan-25 08:31N 47°35' W 122°21'0 0.0
2015-Jan-25 07:33N 47°35' W 122°21'0 0.1
2015-Jan-25 07:30N 47°35' W 122°21'0 0.0
2015-Jan-25 07:05N 47°35' W 122°21'0 0.0
2015-Jan-25 06:33N 47°35' W 122°21'0 0.0
2015-Jan-25 05:34N 47°35' W 122°21'0 0.1
2015-Jan-25 05:30N 47°35' W 122°21'0 0.0
2015-Jan-25 04:33N 47°35' W 122°21'0 0.1
2015-Jan-25 04:30N 47°35' W 122°21'0 0.0
2015-Jan-25 03:33N 47°35' W 122°21'0 0.0
2015-Jan-25 03:30N 47°35' W 122°21'0 0.0
2015-Jan-25 02:33N 47°35' W 122°21'0 0.0
2015-Jan-25 01:33N 47°35' W 122°21'0 0.0
2015-Jan-25 01:26N 47°35' W 122°21'0 0.0
2015-Jan-25 00:33N 47°35' W 122°21'0 0.0
2015-Jan-25 00:31N 47°35' W 122°21'0 0.0
2015-Jan-24 23:33N 47°35' W 122°21'0 0.1
2015-Jan-24 23:31N 47°35' W 122°21'0 0.0
2015-Jan-24 22:33N 47°35' W 122°21'0 0.9
2015-Jan-24 22:31N 47°35' W 122°21'5 5.5
2015-Jan-24 21:33N 47°34' W 122°28'3 2.7
2015-Jan-24 20:33N 47°32' W 122°31'0 0.0
2015-Jan-24 19:33N 47°32' W 122°31'0 0.0
2015-Jan-24 18:33N 47°32' W 122°31'0 0.1
2015-Jan-24 17:33N 47°32' W 122°31'1 2.8
2015-Jan-24 17:06N 47°32' W 122°29'4 6.5
2015-Jan-24 16:33N 47°34' W 122°26'0 6.6
2015-Jan-24 16:31N 47°35' W 122°26'4 3.7
2015-Jan-24 15:34N 47°34' W 122°21'0 0.2
2015-Jan-24 15:32N 47°34' W 122°21'0 0.1
2015-Jan-24 14:33N 47°34' W 122°21'0 0.0
2015-Jan-24 14:31N 47°34' W 122°21'0 0.0
2015-Jan-24 13:33N 47°34' W 122°21'0 0.0
2015-Jan-24 13:31N 47°34' W 122°21'0 0.0
2015-Jan-24 12:33N 47°34' W 122°21'0 0.0
2015-Jan-24 12:31N 47°34' W 122°21'0 0.0
2015-Jan-24 11:33N 47°34' W 122°21'0 0.1
2015-Jan-24 11:30N 47°34' W 122°21'0 0.0
2015-Jan-24 10:33N 47°34' W 122°21'0 0.0
2015-Jan-24 10:31N 47°34' W 122°21'0 0.0
2015-Jan-24 09:33N 47°34' W 122°21'0 0.1
2015-Jan-24 09:31N 47°34' W 122°21'0 0.0
2015-Jan-24 08:33N 47°34' W 122°21'0 0.1
2015-Jan-24 08:30N 47°34' W 122°21'0 0.0
2015-Jan-24 07:33N 47°34' W 122°21'0 0.1
2015-Jan-24 07:30N 47°34' W 122°21'0 0.0
2015-Jan-24 07:00N 47°34' W 122°21'0 0.0
2015-Jan-24 06:33N 47°34' W 122°21'0 0.0
2015-Jan-24 05:33N 47°34' W 122°21'0 0.0
2015-Jan-24 05:30N 47°34' W 122°21'0 0.0
2015-Jan-24 04:33N 47°34' W 122°21'0 0.0
2015-Jan-24 04:30N 47°34' W 122°21'0 0.0
2015-Jan-24 03:33N 47°34' W 122°21'0 0.0
2015-Jan-24 03:29N 47°34' W 122°21'0 0.0
2015-Jan-24 02:33N 47°34' W 122°21'0 0.0
2015-Jan-24 02:29N 47°34' W 122°21'0 0.0
2015-Jan-24 01:33N 47°34' W 122°21'0 0.0
2015-Jan-24 01:29N 47°34' W 122°21'0 0.0
2015-Jan-24 00:33N 47°34' W 122°21'0 0.0
2015-Jan-24 00:33N 47°34' W 122°21'0 0.0
2015-Jan-23 23:33N 47°34' W 122°21'0 0.0
2015-Jan-23 23:33N 47°34' W 122°21'0 0.0
2015-Jan-23 22:33N 47°34' W 122°21'0 0.0
2015-Jan-23 22:33N 47°34' W 122°21'0 0.0
2015-Jan-23 21:33N 47°34' W 122°21'0 0.0
2015-Jan-23 21:32N 47°34' W 122°21'0 0.0
2015-Jan-23 20:33N 47°34' W 122°21'1 0.9
2015-Jan-23 19:32N 47°35' W 122°21'0 0.0
2015-Jan-23 18:33N 47°35' W 122°21'1 0.9
2015-Jan-23 17:31N 47°34' W 122°21'0 0.0
2015-Jan-23 16:33N 47°34' W 122°21'0 0.0
2015-Jan-23 15:33N 47°34' W 122°21'0 0.0
2015-Jan-23 14:33N 47°34' W 122°21'0 0.0
2015-Jan-23 13:33N 47°34' W 122°21'0 0.0
2015-Jan-23 12:31N 47°34' W 122°21'0 0.0
2015-Jan-23 11:30N 47°34' W 122°21'0 0.0
2015-Jan-23 10:29N 47°34' W 122°21'0 0.0
2015-Jan-23 09:33N 47°34' W 122°21'0 0.0
2015-Jan-23 08:33N 47°34' W 122°21'0 0.0
2015-Jan-23 07:33N 47°34' W 122°21'0 0.0
2015-Jan-23 06:32N 47°34' W 122°21'0 0.0
2015-Jan-23 05:33N 47°34' W 122°21'0 0.0
2015-Jan-23 05:31N 47°34' W 122°21'0 0.0
2015-Jan-23 04:33N 47°34' W 122°21'0 0.0
2015-Jan-23 04:31N 47°34' W 122°21'0 0.0
2015-Jan-23 03:33N 47°34' W 122°21'0 0.0
2015-Jan-23 03:31N 47°34' W 122°21'0 0.0
2015-Jan-23 02:32N 47°34' W 122°21'0 0.0
2015-Jan-23 02:29N 47°34' W 122°21'0 0.0
2015-Jan-23 01:34N 47°34' W 122°21'0 0.0
2015-Jan-23 01:33N 47°34' W 122°21'0 0.0
2015-Jan-23 00:34N 47°34' W 122°21'0 0.0
2015-Jan-23 00:33N 47°34' W 122°21'0 0.0
2015-Jan-22 23:34N 47°34' W 122°21'0 0.0
2015-Jan-22 23:33N 47°34' W 122°21'0 0.0
2015-Jan-22 22:33N 47°34' W 122°21'0 0.0
2015-Jan-22 22:33N 47°34' W 122°21'0 0.0
2015-Jan-22 21:33N 47°34' W 122°21'0 0.0
2015-Jan-22 21:13N 47°34' W 122°21'0 0.0
2015-Jan-22 20:33N 47°34' W 122°21'0 0.0
2015-Jan-22 20:32N 47°34' W 122°21'0 0.0
2015-Jan-22 19:29N 47°34' W 122°21'0 0.0
2015-Jan-22 19:16N 47°34' W 122°21'0 0.0
2015-Jan-22 18:33N 47°34' W 122°21'0 0.0
2015-Jan-22 18:31N 47°34' W 122°21'0 0.0
2015-Jan-22 17:33N 47°34' W 122°21'0 0.0
2015-Jan-22 17:31N 47°34' W 122°21'0 0.0
2015-Jan-22 16:33N 47°34' W 122°21'0 0.1
2015-Jan-22 16:31N 47°34' W 122°21'0 0.0
2015-Jan-22 15:33N 47°34' W 122°21'0 0.0
2015-Jan-22 15:31N 47°34' W 122°21'0 0.0
2015-Jan-22 14:33N 47°34' W 122°21'0 0.0
2015-Jan-22 14:31N 47°34' W 122°21'0 0.0
2015-Jan-22 13:33N 47°34' W 122°21'0 0.0
2015-Jan-22 13:31N 47°34' W 122°21'0 0.0
2015-Jan-22 12:33N 47°34' W 122°21'0 0.0
2015-Jan-22 12:30N 47°34' W 122°21'0 0.0
2015-Jan-22 11:33N 47°34' W 122°21'0 0.0
2015-Jan-22 11:30N 47°34' W 122°21'0 0.0
2015-Jan-22 10:33N 47°34' W 122°21'0 0.1
2015-Jan-22 10:30N 47°34' W 122°21'0 0.0
2015-Jan-22 09:33N 47°34' W 122°21'0 0.0
2015-Jan-22 09:30N 47°34' W 122°21'0 0.0
2015-Jan-22 08:33N 47°34' W 122°21'0 0.1
2015-Jan-22 08:30N 47°34' W 122°21'0 0.0
2015-Jan-22 07:33N 47°34' W 122°21'0 0.1
2015-Jan-22 07:30N 47°34' W 122°21'0 0.0
2015-Jan-22 07:10N 47°34' W 122°21'0 0.0
2015-Jan-22 06:29N 47°34' W 122°21'0 0.0
2015-Jan-22 05:33N 47°34' W 122°21'0 0.0
2015-Jan-22 05:29N 47°34' W 122°21'0 0.0
2015-Jan-22 04:33N 47°34' W 122°21'0 0.0
2015-Jan-22 04:29N 47°34' W 122°21'0 0.0
2015-Jan-22 03:34N 47°34' W 122°21'0 0.0
2015-Jan-22 03:33N 47°34' W 122°21'0 0.0
2015-Jan-22 02:33N 47°34' W 122°21'0 0.0
2015-Jan-22 02:32N 47°34' W 122°21'0 0.0
2015-Jan-22 01:33N 47°34' W 122°21'0 0.0
2015-Jan-22 01:31N 47°34' W 122°21'0 0.0
2015-Jan-22 00:33N 47°34' W 122°21'0 0.0
2015-Jan-22 00:31N 47°34' W 122°21'0 0.0
2015-Jan-21 23:33N 47°34' W 122°21'0 0.0
2015-Jan-21 23:31N 47°34' W 122°21'0 0.1
2015-Jan-21 22:50N 47°34' W 122°21'0 0.5
2015-Jan-21 22:46N 47°35' W 122°21'0 1.3
2015-Jan-21 22:46N 47°35' W 122°21'1 2.6
2015-Jan-21 22:33N 47°35' W 122°21'1 2.4
2015-Jan-21 22:21N 47°36' W 122°21'1 1.5
2015-Jan-21 21:33N 47°34' W 122°21'0 3.4
2015-Jan-21 21:30N 47°35' W 122°21'1 0.9
2015-Jan-21 20:33N 47°35' W 122°21'0 0.0
2015-Jan-21 20:30N 47°35' W 122°21'0 0.0
2015-Jan-21 19:34N 47°35' W 122°21'0 0.0
2015-Jan-21 19:30N 47°35' W 122°21'1 1.1
2015-Jan-21 18:33N 47°34' W 122°21'0 0.0
2015-Jan-21 18:30N 47°34' W 122°21'1 1.1
2015-Jan-21 17:33N 47°35' W 122°21'0 0.0
2015-Jan-21 17:30N 47°35' W 122°21'0 0.0
2015-Jan-21 16:33N 47°35' W 122°21'0 0.0
2015-Jan-21 16:30N 47°35' W 122°21'0 0.0
2015-Jan-21 15:33N 47°35' W 122°21'0 0.0
2015-Jan-21 15:30N 47°35' W 122°21'0 0.0
2015-Jan-21 14:33N 47°35' W 122°21'0 0.0
2015-Jan-21 14:29N 47°35' W 122°21'0 0.0
2015-Jan-21 13:33N 47°35' W 122°21'0 0.0
2015-Jan-21 13:30N 47°35' W 122°21'0 0.0
2015-Jan-21 12:33N 47°35' W 122°21'0 0.0
2015-Jan-21 12:29N 47°35' W 122°21'0 0.0
2015-Jan-21 11:33N 47°35' W 122°21'0 0.0
2015-Jan-21 11:33N 47°35' W 122°21'0 0.0
2015-Jan-21 10:33N 47°35' W 122°21'0 0.0
2015-Jan-21 10:28N 47°35' W 122°21'0 0.0
2015-Jan-21 09:33N 47°35' W 122°21'0 0.0
2015-Jan-21 09:33N 47°35' W 122°21'0 0.0
2015-Jan-21 08:33N 47°35' W 122°21'0 0.0
2015-Jan-21 08:33N 47°35' W 122°21'0 0.0
2015-Jan-21 07:33N 47°35' W 122°21'0 0.0
2015-Jan-21 07:32N 47°35' W 122°21'0 0.0
2015-Jan-21 07:02N 47°35' W 122°21'0 0.0
2015-Jan-21 06:33N 47°35' W 122°21'0 0.0
2015-Jan-21 05:33N 47°35' W 122°21'0 0.0
2015-Jan-21 05:32N 47°35' W 122°21'0 0.0
2015-Jan-21 04:33N 47°35' W 122°21'0 0.1
2015-Jan-21 03:33N 47°35' W 122°21'0 0.5
2015-Jan-21 03:18N 47°35' W 122°21'0 0.0
2015-Jan-21 02:33N 47°35' W 122°21'0 0.0
2015-Jan-21 02:28N 47°35' W 122°21'0 0.0
2015-Jan-21 01:33N 47°35' W 122°21'0 0.0
2015-Jan-21 01:33N 47°35' W 122°21'0 0.0
2015-Jan-21 00:33N 47°35' W 122°21'0 0.0
2015-Jan-21 00:33N 47°35' W 122°21'2 1.9
2015-Jan-20 23:33N 47°37' W 122°23'0 0.5
2015-Jan-20 23:33N 47°37' W 122°23'5 5.1
2015-Jan-20 22:33N 47°40' W 122°28'0 4.4
2015-Jan-20 22:33N 47°40' W 122°28'7 7.2
2015-Jan-20 21:34N 47°47' W 122°27'1 7.3
2015-Jan-20 21:22N 47°49' W 122°28'5 6.8
2015-Jan-20 20:34N 47°54' W 122°30'0 6.2
2015-Jan-20 20:31N 47°54' W 122°30'6 6.6
2015-Jan-20 19:33N 47°59' W 122°36'6 5.5
2015-Jan-20 18:33N 48°04' W 122°40'3 5.3
2015-Jan-20 17:56N 48°07' W 122°41'2 4.8
2015-Jan-20 17:33N 48°08' W 122°43'4 4.6
2015-Jan-20 16:36N 48°11' W 122°48'0 5.2
2015-Jan-20 16:33N 48°12' W 122°48'8 6.5
2015-Jan-20 15:20N 48°19' W 122°47'6 7.1
2015-Jan-20 14:33N 48°25' W 122°45'6 5.9
2015-Jan-20 13:33N 48°31' W 122°45'4 4.4
2015-Jan-20 12:33N 48°35' W 122°46'1 2.4
2015-Jan-20 12:14N 48°36' W 122°46'1 2.1
2015-Jan-20 11:33N 48°37' W 122°45'3 2.5
2015-Jan-20 10:33N 48°40' W 122°43'3 3.8
2015-Jan-20 09:53N 48°42' W 122°45'1 4.3
2015-Jan-20 09:33N 48°43' W 122°45'5 5.2
2015-Jan-20 08:33N 48°49' W 122°46'1 6.2
2015-Jan-20 08:22N 48°50' W 122°46'2 2.3
2015-Jan-20 07:33N 48°52' W 122°45'0 0.2
2015-Jan-20 06:52N 48°52' W 122°45'0 0.0
2015-Jan-20 06:32N 48°52' W 122°45'0 0.0
2015-Jan-20 05:30N 48°52' W 122°45'0 0.0
2015-Jan-20 04:25N 48°52' W 122°45'0 0.0
2015-Jan-20 03:28N 48°52' W 122°45'0 0.0
2015-Jan-20 02:32N 48°52' W 122°45'0 0.0
2015-Jan-20 01:40N 48°52' W 122°45'0 0.0
2015-Jan-20 01:33N 48°52' W 122°45'0 0.0
2015-Jan-20 00:31N 48°52' W 122°45'0 0.0
2015-Jan-19 23:33N 48°52' W 122°45'0 0.0
2015-Jan-19 22:33N 48°52' W 122°45'0 0.0
2015-Jan-19 21:31N 48°52' W 122°45'0 0.0
2015-Jan-19 21:15N 48°52' W 122°45'0 0.0
2015-Jan-19 20:33N 48°52' W 122°45'0 0.0
2015-Jan-19 19:20N 48°52' W 122°45'0 0.0
2015-Jan-19 18:32N 48°52' W 122°45'0 0.0
2015-Jan-19 18:04N 48°52' W 122°45'0 0.3
2015-Jan-19 17:32N 48°52' W 122°45'1 0.8
2015-Jan-19 16:33N 48°52' W 122°47'0 0.5
2015-Jan-19 15:46N 48°51' W 122°47'0 1.1
2015-Jan-19 15:33N 48°51' W 122°46'6 6.5
2015-Jan-19 14:33N 48°45' W 122°45'7 6.9
2015-Jan-19 13:33N 48°38' W 122°44'9 8.5
2015-Jan-19 12:33N 48°29' W 122°44'11 8.5
2015-Jan-19 11:14N 48°21' W 122°55'2 9.5
2015-Jan-19 10:58N 48°19' W 122°58'3 8.1
2015-Jan-19 10:32N 48°18' W 123°03'6 8.1
2015-Jan-19 09:48N 48°14' W 123°10'2 7.9
2015-Jan-19 09:33N 48°13' W 123°13'8 7.8
2015-Jan-19 08:33N 48°09' W 123°22'3 3.1
2015-Jan-19 07:33N 48°08' W 123°27'0 0.0
2015-Jan-19 06:33N 48°08' W 123°27'0 0.0
2015-Jan-19 06:15N 48°08' W 123°27'0 0.0
2015-Jan-19 05:33N 48°08' W 123°27'0 0.0
2015-Jan-19 04:36N 48°08' W 123°27'0 0.0
2015-Jan-19 04:33N 48°08' W 123°27'0 0.0
2015-Jan-19 04:20N 48°08' W 123°27'0 0.0
2015-Jan-19 03:33N 48°08' W 123°27'0 0.0
2015-Jan-19 02:33N 48°08' W 123°27'0 0.0
2015-Jan-19 01:50N 48°08' W 123°27'0 0.0
2015-Jan-19 01:33N 48°08' W 123°27'0 0.0
2015-Jan-19 01:10N 48°08' W 123°27'0 0.0
2015-Jan-19 00:33N 48°08' W 123°27'0 0.0
2015-Jan-18 23:33N 48°08' W 123°27'0 0.0
2015-Jan-18 23:24N 48°08' W 123°27'0 0.0
2015-Jan-18 22:34N 48°08' W 123°27'0 0.0
2015-Jan-18 21:59N 48°08' W 123°27'0 0.0
2015-Jan-18 21:34N 48°08' W 123°27'0 0.0
2015-Jan-18 21:19N 48°08' W 123°27'0 0.0
2015-Jan-18 20:33N 48°08' W 123°27'0 0.0
2015-Jan-18 19:54N 48°08' W 123°27'0 0.0
2015-Jan-18 19:33N 48°08' W 123°27'0 0.0
2015-Jan-18 18:59N 48°08' W 123°27'0 0.0
2015-Jan-18 18:33N 48°08' W 123°27'0 0.0
2015-Jan-18 17:33N 48°08' W 123°27'0 0.0
2015-Jan-18 16:33N 48°08' W 123°27'0 0.0
2015-Jan-18 15:33N 48°08' W 123°27'0 0.0
2015-Jan-18 14:34N 48°08' W 123°27'0 0.3
2015-Jan-18 13:33N 48°08' W 123°26'1 0.9
2015-Jan-18 12:33N 48°08' W 123°25'0 0.1
2015-Jan-18 11:33N 48°08' W 123°25'0 0.0
2015-Jan-18 10:32N 48°08' W 123°25'0 0.0
2015-Jan-18 10:18N 48°08' W 123°25'0 0.1
2015-Jan-18 09:33N 48°08' W 123°25'1 1.2
2015-Jan-18 08:33N 48°08' W 123°27'0 0.0
2015-Jan-18 07:33N 48°08' W 123°27'0 0.0
2015-Jan-18 06:33N 48°08' W 123°27'0 0.0
2015-Jan-18 05:33N 48°08' W 123°27'0 0.0
2015-Jan-18 04:33N 48°08' W 123°27'0 0.0
2015-Jan-18 03:33N 48°08' W 123°27'0 0.0
2015-Jan-18 02:33N 48°08' W 123°27'0 0.0
2015-Jan-18 01:33N 48°08' W 123°27'0 0.0
2015-Jan-18 01:29N 48°08' W 123°27'0 0.0
2015-Jan-18 00:33N 48°08' W 123°27'0 0.0
2015-Jan-17 23:33N 48°08' W 123°27'0 0.0
2015-Jan-17 22:33N 48°08' W 123°27'0 0.0
2015-Jan-17 22:02N 48°08' W 123°27'0 0.0
2015-Jan-17 21:33N 48°08' W 123°27'0 0.0
2015-Jan-17 21:16N 48°08' W 123°27'0 0.0
2015-Jan-17 20:33N 48°08' W 123°27'0 0.1
2015-Jan-17 20:29N 48°08' W 123°27'0 0.0
2015-Jan-17 19:33N 48°08' W 123°27'0 0.0
2015-Jan-17 19:28N 48°08' W 123°27'0 0.0
2015-Jan-17 18:33N 48°08' W 123°27'0 0.0
2015-Jan-17 17:33N 48°08' W 123°27'0 0.0
2015-Jan-17 16:33N 48°08' W 123°27'0 0.0
2015-Jan-17 15:33N 48°08' W 123°27'0 0.0
2015-Jan-17 14:33N 48°08' W 123°27'0 0.0
2015-Jan-17 13:33N 48°08' W 123°27'0 0.0
2015-Jan-17 12:33N 48°08' W 123°27'0 0.0
2015-Jan-17 11:48N 48°08' W 123°27'0 0.0
2015-Jan-17 11:33N 48°08' W 123°27'0 0.0
2015-Jan-17 10:37N 48°08' W 123°27'0 0.0
2015-Jan-17 10:33N 48°08' W 123°27'0 0.0
2015-Jan-17 10:11N 48°08' W 123°27'0 0.0
2015-Jan-17 09:33N 48°08' W 123°27'0 0.0
2015-Jan-17 08:33N 48°08' W 123°27'0 0.0
2015-Jan-17 07:33N 48°08' W 123°27'0 0.0
2015-Jan-17 06:33N 48°08' W 123°27'0 0.0
2015-Jan-17 05:33N 48°08' W 123°27'0 0.0
2015-Jan-17 04:34N 48°08' W 123°27'0 0.0
2015-Jan-17 03:33N 48°08' W 123°27'1 0.6
2015-Jan-17 02:32N 48°08' W 123°27'0 0.0
2015-Jan-17 01:30N 48°08' W 123°27'0 0.1
2015-Jan-17 00:33N 48°08' W 123°27'0 0.2
2015-Jan-17 00:12N 48°08' W 123°27'0 0.3
2015-Jan-16 23:33N 48°08' W 123°27'0 0.2
2015-Jan-16 23:18N 48°08' W 123°27'0 0.6
2015-Jan-16 22:33N 48°08' W 123°27'0 0.1
2015-Jan-16 21:33N 48°08' W 123°27'0 0.0
2015-Jan-16 20:33N 48°08' W 123°27'0 0.0
2015-Jan-16 19:33N 48°08' W 123°27'0 0.0
2015-Jan-16 19:22N 48°08' W 123°27'0 0.1
2015-Jan-16 18:33N 48°08' W 123°27'0 0.0
2015-Jan-16 17:33N 48°08' W 123°27'0 0.0
2015-Jan-16 17:12N 48°08' W 123°27'0 0.0
2015-Jan-16 16:33N 48°08' W 123°27'0 0.0
2015-Jan-16 15:33N 48°08' W 123°27'0 0.0
2015-Jan-16 14:33N 48°08' W 123°27'0 0.0
2015-Jan-16 13:33N 48°08' W 123°27'  

Dump ship's entire track history